Portada
METAR-TAF:

METAR-TAF

Aeropuertos :

Aeropuerto de Uagadugú

Uagadugú, Burkina Faso

latitud: 12-21N, longitud: 001-31W, altitud: 316 m

Observación

El informe se hizo hace 1 hora y 11 minutos, a las 15:00 UTC
Viento 4 kt del oeste
Temperatura 35°C
Humedad 44%
Presión 1010 hPa
Visibilidad 10 km o más
Escasas nubes a una altura de 2000 ft

METAR: DFFD 171500Z 26004KT 9999 FEW020 35/21 Q1010 NOSIG

Hora: 16:11 (16:11 UTC)

Pronóstico

El informe se hizo hace 5 horas y 11 minutos, a las 11:00 UTC
Pronóstico válido del 17 a las 12 UTC al 18 a las 18 UTC
Viento 8 kt del oeste-suroeste
Visibilidad 10 km o más
sin nubes por debajo de 1500 m y sin presencia de cumulonimbus.
Probabilidad 30% :
Temporalmente
del 17 a las 16 UTC al 17 a las 24 UTC
Visibilidad: 4000 m
Nubes dispersas a una altura de 2000 ft
Nubes dispersas a una altura de 3300 ft, Cumulonimbus.
tormenta, lluvia

TAF: DFFD 171100Z 1712/1818 24008KT CAVOK PROB30 TEMPO 1716/1724 4000 TSRA SCT020 SCT033CB

Observaciones y pronósticos meteorológicos de más de 4000 aeropuertos (mensajes METAR y TAF).

Los puntos amarillos y rojos representan las estaciones disponibles.

Ponga el ratón en el punto deseado para ver el nombre de la estación.

Haga clic para ver las observaciones y los pronósticos meteorológicos.

Para cambiar el mapa : haga clic en los botones verdes con una cruz de color negro para hacer un zoom, en el botón verde con un guión para alejar o en las flechas verdes para mapas adyacentes.


METAR-TAF: